Time;durP1;ratioP1;P1;durP2;ratioP2;P2;SDS_P1;SDS_P2;PMS_P1;PMS_P2;Temp;Humidity;BMP_temperature;BMP_pressure;BME280_temperature;BME280_humidity;BME280_pressure;Samples;Min_cycle;Max_cycle;Signal;HPM_P1;HPM_P2
2023/12/22 00:01:02;;;;;;;13.77;13.27;;;9.60;99.90;;;;;;5126872;27;20198;-64
2023/12/22 00:03:29;;;;;;;13.43;12.93;;;9.60;99.90;;;;;;5120552;27;20198;-62
2023/12/22 00:05:57;;;;;;;13.70;13.10;;;9.60;99.90;;;;;;5124501;27;20321;-62
2023/12/22 00:08:24;;;;;;;13.43;12.93;;;9.60;99.90;;;;;;5126073;28;20228;-63
2023/12/22 00:10:51;;;;;;;13.27;12.77;;;9.60;99.90;;;;;;5127165;27;20235;-63
2023/12/22 00:13:18;;;;;;;13.63;13.13;;;9.60;99.90;;;;;;5123338;28;20218;-63
2023/12/22 00:15:45;;;;;;;13.60;13.10;;;9.50;99.90;;;;;;5125279;28;20205;-63
2023/12/22 00:18:11;;;;;;;14.20;13.70;;;9.60;99.90;;;;;;5128349;28;20212;-62
2023/12/22 00:20:38;;;;;;;14.37;13.87;;;9.60;99.90;;;;;;5126799;27;20225;-63
2023/12/22 00:23:06;;;;;;;14.43;13.93;;;9.60;99.90;;;;;;5119497;27;20197;-63
2023/12/22 00:25:33;;;;;;;14.83;14.33;;;9.60;99.90;;;;;;5124868;28;20209;-63
2023/12/22 00:27:59;;;;;;;15.33;14.83;;;9.60;99.90;;;;;;5119153;27;20201;-62
2023/12/22 00:30:26;;;;;;;16.20;15.60;;;9.60;99.90;;;;;;5124289;28;20221;-63
2023/12/22 00:32:53;;;;;;;16.30;15.70;;;9.60;99.90;;;;;;5119704;27;20568;-63
2023/12/22 00:35:19;;;;;;;19.23;18.53;;;9.60;99.90;;;;;;5124016;28;20197;-63
2023/12/22 00:37:46;;;;;;;28.10;26.97;;;9.70;99.90;;;;;;5119628;27;20205;-63
2023/12/22 00:40:15;;;;;;;47.07;45.13;;;9.70;99.90;;;;;;5120118;28;20234;-61
2023/12/22 00:42:42;;;;;;;18.97;18.27;;;9.70;99.90;;;;;;5124969;27;20197;-63
2023/12/22 00:45:09;;;;;;;22.60;21.70;;;9.60;99.90;;;;;;5125117;28;20202;-62
2023/12/22 00:47:36;;;;;;;21.83;20.97;;;9.50;99.90;;;;;;5126405;27;20572;-63
2023/12/22 00:50:04;;;;;;;18.73;18.03;;;9.50;99.90;;;;;;5119943;27;20218;-63
2023/12/22 00:52:30;;;;;;;19.70;18.90;;;9.50;99.90;;;;;;5125881;27;20227;-63
2023/12/22 00:54:57;;;;;;;17.63;16.93;;;9.50;99.90;;;;;;5124085;27;20208;-63
2023/12/22 00:57:25;;;;;;;18.53;17.73;;;9.50;99.90;;;;;;5121989;28;20286;-62
2023/12/22 00:59:52;;;;;;;15.27;14.67;;;9.50;99.90;;;;;;5126280;27;20414;-62
2023/12/22 01:02:20;;;;;;;15.27;14.67;;;9.70;99.90;;;;;;5128807;28;20564;-63
2023/12/22 01:04:46;;;;;;;17.20;16.60;;;9.80;99.90;;;;;;5140259;27;20197;-63
2023/12/22 01:07:14;;;;;;;14.27;13.77;;;9.90;99.90;;;;;;5133695;27;20202;-62
2023/12/22 01:09:40;;;;;;;15.07;14.47;;;10.00;99.90;;;;;;5131362;27;20229;-61
2023/12/22 01:12:09;;;;;;;14.80;14.20;;;10.00;99.90;;;;;;5124643;27;20226;-64
2023/12/22 01:14:37;;;;;;;14.52;14.02;;;10.00;99.90;;;;;;5128039;27;20225;-63
2023/12/22 01:17:04;;;;;;;13.30;12.80;;;10.00;99.90;;;;;;5128565;27;20218;-63
2023/12/22 01:19:30;;;;;;;14.03;13.53;;;10.00;99.90;;;;;;5134140;27;20231;-63
2023/12/22 01:21:57;;;;;;;12.13;11.73;;;10.10;99.90;;;;;;5127147;27;20212;-63
2023/12/22 01:24:24;;;;;;;13.17;12.67;;;10.10;99.90;;;;;;5132137;27;20202;-63
2023/12/22 01:26:50;;;;;;;14.47;13.93;;;10.20;99.90;;;;;;5126652;27;20213;-63
2023/12/22 01:29:17;;;;;;;16.77;16.17;;;10.20;99.90;;;;;;5128259;27;20217;-64
2023/12/22 01:31:45;;;;;;;51.30;48.70;;;10.20;99.90;;;;;;5130310;27;20206;-62
2023/12/22 01:34:12;;;;;;;13.73;13.23;;;10.00;99.90;;;;;;5128096;27;20232;-62
2023/12/22 01:36:39;;;;;;;15.67;15.07;;;9.80;99.90;;;;;;5129921;27;21503;-63
2023/12/22 01:39:05;;;;;;;13.37;12.87;;;9.70;99.90;;;;;;5126866;27;20222;-62
2023/12/22 01:41:32;;;;;;;20.15;19.30;;;9.60;99.90;;;;;;5121566;27;20249;-62
2023/12/22 01:43:59;;;;;;;14.80;14.30;;;9.40;99.90;;;;;;5124536;27;20216;-62
2023/12/22 01:46:26;;;;;;;14.37;13.87;;;9.40;99.90;;;;;;5127266;27;20204;-64
2023/12/22 01:48:54;;;;;;;16.57;15.97;;;9.30;99.90;;;;;;5121692;27;20217;-63
2023/12/22 01:51:21;;;;;;;16.07;15.47;;;9.30;99.90;;;;;;5124946;27;20656;-63
2023/12/22 01:53:47;;;;;;;17.33;16.73;;;9.20;99.90;;;;;;5125035;27;20224;-62
2023/12/22 01:56:14;;;;;;;14.77;14.17;;;9.10;99.90;;;;;;5124912;27;20221;-63
2023/12/22 01:58:41;;;;;;;13.48;12.98;;;9.10;99.90;;;;;;5123062;27;20240;-62
2023/12/22 02:01:08;;;;;;;14.33;13.83;;;9.10;99.90;;;;;;5128395;27;20202;-62
2023/12/22 02:03:36;;;;;;;13.87;13.37;;;9.10;99.90;;;;;;5127067;27;20201;-63
2023/12/22 02:06:05;;;;;;;14.37;13.87;;;9.10;99.90;;;;;;5122153;27;20208;-63
2023/12/22 02:08:34;;;;;;;13.00;12.50;;;9.10;99.90;;;;;;5126584;27;20856;-63
2023/12/22 02:11:00;;;;;;;14.53;14.03;;;9.00;99.90;;;;;;5123884;27;20277;-63
2023/12/22 02:13:28;;;;;;;15.53;14.97;;;9.10;99.90;;;;;;5125271;27;20241;-62
2023/12/22 02:16:01;;;;;;;14.60;14.10;;;9.00;99.90;;;;;;5128121;27;20209;-64
2023/12/22 02:18:34;;;;;;;13.23;12.73;;;9.10;99.90;;;;;;5121764;27;20225;-62
2023/12/22 02:21:01;;;;;;;13.23;12.73;;;9.10;99.90;;;;;;5125101;27;20209;-63
2023/12/22 02:23:29;;;;;;;12.67;12.20;;;9.10;99.90;;;;;;5116945;27;20216;-63
2023/12/22 02:26:07;;;;;;;12.43;11.93;;;9.20;99.90;;;;;;5117884;27;20206;-62
2023/12/22 02:28:35;;;;;;;12.50;12.00;;;9.30;99.90;;;;;;5110016;28;20221;-63
2023/12/22 02:31:10;;;;;;;13.00;12.50;;;9.50;99.90;;;;;;5111643;28;20210;-63
2023/12/22 02:33:39;;;;;;;13.50;13.00;;;9.60;99.90;;;;;;5111398;28;20217;-63
2023/12/22 02:36:09;;;;;;;12.80;12.30;;;9.70;99.90;;;;;;5109221;28;20198;-62
2023/12/22 02:38:39;;;;;;;13.20;12.70;;;9.80;99.90;;;;;;5111465;28;20225;-63
2023/12/22 02:41:07;;;;;;;14.43;13.83;;;9.90;99.90;;;;;;5109331;28;20200;-62
2023/12/22 02:43:34;;;;;;;12.37;11.87;;;10.00;99.90;;;;;;5121457;28;20189;-69
2023/12/22 02:46:00;;;;;;;20.23;19.50;;;10.10;99.90;;;;;;5128360;28;20201;-63
2023/12/22 02:48:27;;;;;;;15.50;14.90;;;10.10;99.90;;;;;;5113721;28;20222;-63
2023/12/22 02:50:54;;;;;;;14.30;13.70;;;10.10;99.90;;;;;;5112725;28;20210;-62
2023/12/22 02:53:20;;;;;;;13.17;12.67;;;10.10;99.90;;;;;;5108501;28;20222;-63
2023/12/22 02:55:48;;;;;;;13.93;13.40;;;10.10;99.90;;;;;;5111985;28;20218;-63
2023/12/22 02:58:15;;;;;;;13.60;13.10;;;10.10;99.90;;;;;;5110743;28;20212;-63
2023/12/22 03:00:42;;;;;;;14.03;13.50;;;10.20;99.90;;;;;;5112064;28;20208;-63
2023/12/22 03:03:09;;;;;;;12.60;12.10;;;10.20;99.90;;;;;;5111607;28;20205;-63
2023/12/22 03:05:36;;;;;;;12.97;12.40;;;10.20;99.90;;;;;;5111721;28;20571;-62
2023/12/22 03:08:03;;;;;;;13.17;12.67;;;10.30;99.90;;;;;;5112101;28;20202;-63
2023/12/22 03:10:30;;;;;;;12.90;12.40;;;10.30;99.90;;;;;;5110391;28;20602;-63
2023/12/22 03:12:58;;;;;;;12.80;12.30;;;10.30;99.90;;;;;;5109346;28;20564;-64
2023/12/22 03:15:25;;;;;;;12.47;11.97;;;10.30;99.90;;;;;;5115551;28;20206;-63
2023/12/22 03:17:52;;;;;;;13.43;12.93;;;10.30;99.90;;;;;;5126324;28;20620;-63
2023/12/22 03:20:18;;;;;;;12.87;12.37;;;10.30;99.90;;;;;;5122581;28;20233;-64
2023/12/22 03:22:45;;;;;;;12.97;12.40;;;10.30;99.90;;;;;;5122670;28;20209;-62
2023/12/22 03:25:12;;;;;;;12.43;11.93;;;10.40;99.90;;;;;;5121795;28;20287;-63
2023/12/22 03:27:39;;;;;;;13.07;12.57;;;10.40;99.90;;;;;;5120999;28;20209;-63
2023/12/22 03:30:08;;;;;;;12.80;12.30;;;10.30;99.90;;;;;;5116452;28;20313;-62
2023/12/22 03:32:35;;;;;;;12.57;12.07;;;10.30;99.90;;;;;;5110879;28;20230;-63
2023/12/22 03:35:02;;;;;;;13.27;12.77;;;10.30;99.90;;;;;;5111216;28;20855;-63
2023/12/22 03:37:28;;;;;;;12.60;12.13;;;10.30;99.90;;;;;;5109011;28;20201;-63
2023/12/22 03:39:55;;;;;;;12.53;12.10;;;10.30;99.90;;;;;;5111076;28;20533;-63
2023/12/22 03:42:22;;;;;;;13.20;12.70;;;10.30;99.90;;;;;;5110773;28;20202;-63
2023/12/22 03:44:48;;;;;;;12.90;12.40;;;10.30;99.90;;;;;;5110929;28;20208;-63
2023/12/22 03:47:16;;;;;;;12.40;11.90;;;10.30;99.90;;;;;;5111072;28;20198;-63
2023/12/22 03:49:42;;;;;;;12.73;12.23;;;10.20;99.90;;;;;;5110031;28;20229;-63
2023/12/22 03:52:09;;;;;;;12.93;12.43;;;10.20;99.90;;;;;;5109432;28;20202;-63
2023/12/22 03:54:36;;;;;;;13.30;12.80;;;10.20;99.90;;;;;;5110838;27;20236;-63
2023/12/22 03:57:02;;;;;;;13.53;13.03;;;10.20;99.90;;;;;;5110589;28;20217;-62
2023/12/22 03:59:29;;;;;;;13.60;13.07;;;10.10;99.90;;;;;;5108622;28;20217;-62
2023/12/22 04:01:57;;;;;;;14.60;14.00;;;10.00;99.90;;;;;;5110242;28;20213;-62
2023/12/22 04:04:27;;;;;;;20.17;19.37;;;9.90;99.90;;;;;;5110842;28;20546;-62
2023/12/22 04:06:54;;;;;;;25.57;24.57;;;9.80;99.90;;;;;;5110501;28;20210;-63
2023/12/22 04:09:20;;;;;;;15.37;14.67;;;9.70;99.90;;;;;;5110446;28;20453;-63
2023/12/22 04:11:47;;;;;;;17.03;16.33;;;9.60;99.90;;;;;;5110639;28;20209;-62
2023/12/22 04:14:15;;;;;;;17.73;17.03;;;9.60;99.90;;;;;;5111136;28;20218;-63
2023/12/22 04:16:41;;;;;;;15.98;15.38;;;9.60;99.90;;;;;;5110816;28;20204;-63
2023/12/22 04:19:08;;;;;;;14.50;13.90;;;9.50;99.90;;;;;;5111810;28;20225;-64
2023/12/22 04:21:36;;;;;;;15.27;14.67;;;9.50;99.90;;;;;;5111526;28;20225;-63
2023/12/22 04:24:04;;;;;;;14.20;13.60;;;9.50;99.90;;;;;;5116151;28;20197;-65
2023/12/22 04:26:31;;;;;;;13.67;13.07;;;9.70;99.90;;;;;;5122407;28;20247;-64
2023/12/22 04:28:57;;;;;;;14.93;14.30;;;9.90;99.90;;;;;;5111910;28;20229;-63
2023/12/22 04:31:24;;;;;;;16.07;15.27;;;10.00;99.90;;;;;;5115304;28;20198;-62
2023/12/22 04:33:51;;;;;;;14.70;14.10;;;10.10;99.90;;;;;;5109762;28;20236;-63
2023/12/22 04:36:17;;;;;;;13.57;13.07;;;10.10;99.90;;;;;;5128542;27;20202;-62
2023/12/22 04:38:45;;;;;;;13.73;13.23;;;10.20;99.90;;;;;;5132750;27;20225;-63
2023/12/22 04:41:12;;;;;;;13.00;12.50;;;10.10;99.90;;;;;;5132660;27;20205;-63
2023/12/22 04:43:39;;;;;;;13.37;12.87;;;10.20;99.90;;;;;;5130779;27;20201;-63
2023/12/22 04:46:05;;;;;;;12.87;12.37;;;10.20;99.90;;;;;;5131037;27;20208;-63
2023/12/22 04:48:32;;;;;;;13.40;12.80;;;10.20;99.90;;;;;;5131340;27;20597;-63
2023/12/22 04:50:59;;;;;;;13.20;12.70;;;10.30;99.90;;;;;;5129690;27;20213;-64
2023/12/22 04:53:26;;;;;;;13.73;13.13;;;10.20;99.90;;;;;;5126823;27;20296;-63
2023/12/22 04:55:54;;;;;;;12.50;12.00;;;10.20;99.90;;;;;;5127214;27;20201;-64
2023/12/22 04:58:21;;;;;;;12.97;12.47;;;10.30;99.90;;;;;;5131640;27;20202;-63
2023/12/22 05:00:47;;;;;;;13.03;12.53;;;10.40;99.90;;;;;;5127687;27;20208;-63
2023/12/22 05:03:14;;;;;;;13.17;12.67;;;10.30;99.90;;;;;;5130469;27;20889;-63
2023/12/22 05:05:41;;;;;;;14.13;13.52;;;10.30;99.90;;;;;;5128441;27;20201;-64
2023/12/22 05:08:08;;;;;;;13.60;13.00;;;10.30;99.90;;;;;;5130790;27;20205;-64
2023/12/22 05:10:34;;;;;;;13.57;12.97;;;10.40;99.90;;;;;;5130470;27;20212;-63
2023/12/22 05:13:03;;;;;;;12.73;12.23;;;10.50;99.90;;;;;;5130670;27;20224;-63
2023/12/22 05:15:30;;;;;;;12.73;12.23;;;10.40;99.90;;;;;;5132081;27;20236;-62
2023/12/22 05:17:57;;;;;;;13.73;13.13;;;10.40;99.90;;;;;;5136686;27;20213;-62
2023/12/22 05:20:23;;;;;;;13.47;12.97;;;10.40;99.90;;;;;;5141575;27;20236;-63
2023/12/22 05:22:50;;;;;;;13.20;12.60;;;10.40;99.90;;;;;;5133668;27;20209;-62
2023/12/22 05:25:17;;;;;;;15.83;15.20;;;10.40;99.90;;;;;;5135987;27;20675;-63
2023/12/22 05:27:44;;;;;;;12.60;12.10;;;10.40;99.90;;;;;;5130843;27;20652;-62
2023/12/22 05:30:13;;;;;;;12.43;12.03;;;10.40;99.90;;;;;;5127316;27;20233;-62
2023/12/22 05:32:40;;;;;;;13.47;12.87;;;10.30;99.90;;;;;;5129350;27;20205;-63
2023/12/22 05:35:07;;;;;;;13.60;13.00;;;10.30;99.90;;;;;;5135883;27;20225;-64
2023/12/22 05:37:34;;;;;;;13.37;12.80;;;10.30;99.90;;;;;;5142919;27;20198;-63
2023/12/22 05:40:01;;;;;;;13.00;12.40;;;10.30;99.90;;;;;;5135768;27;20228;-63
2023/12/22 05:42:27;;;;;;;13.17;12.67;;;10.30;99.90;;;;;;5134780;27;20208;-63
2023/12/22 05:44:54;;;;;;;13.07;12.47;;;10.40;99.90;;;;;;5123379;27;20197;-61
2023/12/22 05:47:22;;;;;;;13.70;13.10;;;10.40;99.90;;;;;;5126062;27;20210;-60
2023/12/22 05:49:49;;;;;;;12.43;11.93;;;10.40;99.90;;;;;;5125504;27;20229;-60
2023/12/22 05:52:16;;;;;;;15.57;14.87;;;10.40;99.90;;;;;;5124411;27;20198;-62
2023/12/22 05:54:42;;;;;;;12.40;11.90;;;10.50;99.90;;;;;;5125116;27;20221;-63
2023/12/22 05:57:09;;;;;;;12.30;11.80;;;10.50;99.90;;;;;;5124444;27;20202;-61
2023/12/22 05:59:36;;;;;;;14.83;14.23;;;10.60;99.90;;;;;;5124035;27;20226;-60
2023/12/22 06:02:03;;;;;;;14.67;14.07;;;10.60;99.90;;;;;;5126984;27;20209;-61
2023/12/22 06:04:31;;;;;;;12.60;12.10;;;10.60;99.90;;;;;;5128057;27;20208;-61
2023/12/22 06:06:58;;;;;;;12.57;12.07;;;10.60;99.90;;;;;;5136172;27;20224;-62
2023/12/22 06:09:25;;;;;;;12.40;11.90;;;10.50;99.90;;;;;;5139628;27;20216;-61
2023/12/22 06:11:51;;;;;;;12.10;11.60;;;10.50;99.90;;;;;;5120291;27;20686;-63
2023/12/22 06:14:18;;;;;;;12.67;12.17;;;10.50;99.90;;;;;;5114918;28;20222;-62
2023/12/22 06:16:45;;;;;;;11.70;11.20;;;10.50;99.90;;;;;;5113370;27;20217;-62
2023/12/22 06:19:12;;;;;;;12.30;11.83;;;10.50;99.90;;;;;;5119476;27;20226;-62
2023/12/22 06:21:41;;;;;;;12.83;12.30;;;10.50;99.90;;;;;;5117097;27;20216;-66
2023/12/22 06:24:09;;;;;;;13.17;12.57;;;10.40;99.90;;;;;;5114113;28;20251;-67
2023/12/22 06:26:36;;;;;;;12.00;11.50;;;10.40;99.90;;;;;;5117698;27;20209;-67
2023/12/22 06:29:03;;;;;;;12.30;11.80;;;10.40;99.90;;;;;;5114009;27;20226;-67
2023/12/22 06:31:30;;;;;;;12.30;11.80;;;10.40;99.90;;;;;;5108721;28;20207;-66
2023/12/22 06:34:00;;;;;;;12.07;11.63;;;10.40;99.90;;;;;;5113683;28;20707;-67
2023/12/22 06:36:27;;;;;;;11.83;11.33;;;10.40;99.90;;;;;;5115375;27;20267;-65
2023/12/22 06:38:55;;;;;;;12.60;12.00;;;10.30;99.90;;;;;;5117142;27;20238;-65
2023/12/22 06:41:22;;;;;;;21.07;19.87;;;10.40;99.90;;;;;;5118921;27;20202;-66
2023/12/22 06:43:49;;;;;;;12.47;11.97;;;10.40;99.90;;;;;;5116307;27;20198;-66
2023/12/22 06:46:17;;;;;;;12.10;11.60;;;10.30;99.90;;;;;;5108457;28;20297;-65
2023/12/22 06:48:43;;;;;;;11.60;11.10;;;10.30;99.90;;;;;;5110797;27;20283;-66
2023/12/22 06:51:18;;;;;;;12.53;12.03;;;10.30;99.90;;;;;;5106859;27;20683;-66
2023/12/22 06:53:46;;;;;;;12.80;12.20;;;10.30;99.90;;;;;;5108803;27;20266;-65
2023/12/22 06:56:18;;;;;;;12.20;11.70;;;10.30;99.90;;;;;;5110688;27;20197;-65
2023/12/22 06:58:46;;;;;;;12.37;11.87;;;10.30;99.90;;;;;;5112122;28;20233;-66
2023/12/22 07:01:13;;;;;;;12.53;12.03;;;10.30;99.90;;;;;;5114048;28;20600;-65
2023/12/22 07:03:40;;;;;;;11.90;11.40;;;10.30;99.90;;;;;;5111528;28;20213;-65
2023/12/22 07:06:07;;;;;;;11.90;11.40;;;10.40;99.90;;;;;;5117245;28;20245;-68
2023/12/22 07:08:34;;;;;;;11.73;11.33;;;10.30;99.90;;;;;;5118204;28;20226;-69
2023/12/22 07:11:00;;;;;;;12.17;11.67;;;10.40;99.90;;;;;;5114903;28;20308;-68
2023/12/22 07:13:28;;;;;;;11.77;11.27;;;10.30;99.90;;;;;;5113476;28;20213;-67
2023/12/22 07:15:55;;;;;;;12.67;12.17;;;10.40;99.90;;;;;;5113932;27;20183;-69
2023/12/22 07:18:22;;;;;;;12.10;11.60;;;10.40;99.90;;;;;;5113779;28;20592;-68
2023/12/22 07:20:48;;;;;;;11.63;11.13;;;10.40;99.90;;;;;;5118645;28;20213;-66
2023/12/22 07:23:15;;;;;;;11.80;11.37;;;10.40;99.90;;;;;;5119534;28;20201;-67
2023/12/22 07:25:42;;;;;;;12.43;11.93;;;10.40;99.90;;;;;;5118769;28;20198;-66
2023/12/22 07:28:08;;;;;;;13.57;13.07;;;10.50;99.90;;;;;;5117757;28;20224;-67
2023/12/22 07:30:36;;;;;;;14.37;13.73;;;10.50;99.90;;;;;;5113531;28;20212;-68
2023/12/22 07:33:04;;;;;;;12.17;11.67;;;10.50;99.90;;;;;;5112991;28;20652;-68
2023/12/22 07:35:30;;;;;;;12.33;11.83;;;10.50;99.90;;;;;;5113453;28;20222;-67
2023/12/22 07:37:57;;;;;;;11.90;11.50;;;10.40;99.90;;;;;;5112778;28;20202;-68
2023/12/22 07:40:24;;;;;;;11.93;11.53;;;10.40;99.90;;;;;;5113849;28;20225;-67
2023/12/22 07:42:51;;;;;;;11.87;11.37;;;10.40;99.90;;;;;;5117532;28;20221;-69
2023/12/22 07:45:18;;;;;;;11.80;11.30;;;10.50;99.90;;;;;;5119088;28;20224;-68
2023/12/22 07:47:46;;;;;;;12.23;11.73;;;10.50;99.90;;;;;;5114630;28;20196;-68
2023/12/22 07:50:13;;;;;;;11.93;11.43;;;10.50;99.90;;;;;;5119679;28;20275;-68
2023/12/22 07:52:39;;;;;;;11.30;10.90;;;10.40;99.90;;;;;;5115689;28;20209;-67
2023/12/22 07:55:08;;;;;;;12.07;11.57;;;10.40;99.90;;;;;;5116358;28;20234;-66
2023/12/22 07:57:34;;;;;;;12.27;11.77;;;10.40;99.90;;;;;;5116191;27;20228;-68
2023/12/22 08:00:01;;;;;;;12.30;11.80;;;10.50;99.90;;;;;;5115365;28;20229;-68
2023/12/22 08:02:28;;;;;;;14.03;13.50;;;10.50;99.90;;;;;;5114860;28;20288;-68
2023/12/22 08:04:56;;;;;;;13.80;13.30;;;10.40;99.90;;;;;;5113249;28;20198;-67
2023/12/22 08:07:23;;;;;;;12.20;11.70;;;10.40;99.90;;;;;;5113547;28;20198;-66
2023/12/22 08:09:50;;;;;;;12.50;12.00;;;10.30;99.90;;;;;;5115480;28;20218;-67
2023/12/22 08:12:16;;;;;;;12.97;12.37;;;10.30;99.90;;;;;;5117792;28;20214;-66
2023/12/22 08:14:43;;;;;;;11.73;11.27;;;10.30;99.90;;;;;;5126695;28;20213;-68
2023/12/22 08:17:10;;;;;;;12.40;11.90;;;10.20;99.90;;;;;;5124414;27;20220;-66
2023/12/22 08:19:37;;;;;;;13.50;12.90;;;10.10;99.90;;;;;;5125676;28;20245;-67
2023/12/22 08:22:05;;;;;;;13.03;12.43;;;10.10;99.90;;;;;;5122489;27;20202;-67
2023/12/22 08:24:32;;;;;;;11.90;11.40;;;10.10;99.90;;;;;;5120971;27;20266;-66
2023/12/22 08:26:59;;;;;;;12.40;11.90;;;10.10;99.90;;;;;;5114454;28;20194;-65
2023/12/22 08:29:26;;;;;;;12.90;12.30;;;10.10;99.90;;;;;;5115981;28;20240;-67
2023/12/22 08:31:53;;;;;;;12.60;12.10;;;10.10;99.90;;;;;;5115506;27;20205;-67
2023/12/22 08:34:20;;;;;;;12.70;12.20;;;10.10;99.90;;;;;;5118994;28;20253;-67
2023/12/22 08:36:47;;;;;;;11.80;11.40;;;10.10;99.90;;;;;;5121746;27;20206;-66
2023/12/22 08:39:15;;;;;;;12.97;12.37;;;10.10;99.90;;;;;;5125761;28;20217;-65
2023/12/22 08:41:41;;;;;;;13.23;12.67;;;10.20;99.90;;;;;;5135641;27;20206;-66
2023/12/22 08:44:08;;;;;;;12.73;12.23;;;10.10;99.90;;;;;;5130928;28;20208;-66
2023/12/22 08:46:35;;;;;;;13.70;13.10;;;10.10;99.90;;;;;;5134271;27;20297;-67
2023/12/22 08:49:03;;;;;;;14.53;13.93;;;10.10;99.90;;;;;;5129947;28;20217;-66
2023/12/22 08:51:30;;;;;;;13.10;12.50;;;10.20;99.90;;;;;;5122010;27;20213;-65
2023/12/22 08:53:57;;;;;;;13.73;13.07;;;10.20;99.90;;;;;;5123588;27;20210;-67
2023/12/22 08:56:25;;;;;;;13.07;12.53;;;10.20;99.90;;;;;;5125910;27;20208;-66
2023/12/22 08:58:54;;;;;;;12.67;12.17;;;10.20;99.90;;;;;;5126114;28;20219;-65
2023/12/22 09:01:22;;;;;;;13.97;13.27;;;10.20;99.90;;;;;;5134419;27;20213;-67
2023/12/22 09:03:49;;;;;;;14.07;13.37;;;10.30;99.90;;;;;;5127313;27;20213;-68
2023/12/22 09:06:16;;;;;;;13.13;12.53;;;10.30;99.90;;;;;;5124711;27;20217;-65
2023/12/22 09:08:43;;;;;;;12.87;12.37;;;10.30;99.90;;;;;;5125043;28;20257;-67
2023/12/22 09:11:11;;;;;;;12.37;11.87;;;10.30;99.90;;;;;;5133505;27;20208;-67
2023/12/22 09:13:40;;;;;;;12.03;11.53;;;10.30;99.90;;;;;;5125158;27;20202;-65
2023/12/22 09:16:06;;;;;;;12.57;11.97;;;10.30;99.90;;;;;;5113328;28;20957;-67
2023/12/22 09:18:33;;;;;;;13.10;12.50;;;10.30;99.90;;;;;;5116957;27;20236;-66
2023/12/22 09:21:00;;;;;;;12.80;12.30;;;10.30;99.90;;;;;;5120813;27;20283;-66
2023/12/22 09:23:27;;;;;;;12.17;11.67;;;10.30;99.90;;;;;;5113390;28;20206;-65
2023/12/22 09:25:54;;;;;;;12.70;12.20;;;10.30;99.90;;;;;;5113685;28;20198;-64
2023/12/22 09:28:20;;;;;;;12.30;11.80;;;10.30;99.90;;;;;;5114913;28;20200;-67
2023/12/22 09:30:48;;;;;;;12.43;11.93;;;10.40;99.90;;;;;;5118336;28;20703;-66
2023/12/22 09:33:15;;;;;;;12.57;12.07;;;10.30;99.90;;;;;;5119245;27;20198;-66
2023/12/22 09:35:42;;;;;;;12.73;12.13;;;10.40;99.90;;;;;;5131053;27;20244;-65
2023/12/22 09:38:09;;;;;;;13.53;13.00;;;10.40;99.90;;;;;;5114258;28;20655;-65
2023/12/22 09:40:37;;;;;;;12.80;12.20;;;10.30;99.90;;;;;;5113034;28;20282;-67
2023/12/22 09:43:05;;;;;;;12.17;11.63;;;10.40;99.90;;;;;;5113878;28;20656;-66
2023/12/22 09:45:33;;;;;;;12.23;11.73;;;10.30;99.90;;;;;;5114003;28;20633;-65
2023/12/22 09:48:03;;;;;;;13.47;12.77;;;10.30;99.90;;;;;;5115291;27;20220;-65
2023/12/22 09:50:31;;;;;;;13.03;12.43;;;10.30;99.90;;;;;;5120652;27;20225;-66
2023/12/22 09:52:58;;;;;;;12.63;12.03;;;10.30;99.90;;;;;;5114822;28;20202;-65
2023/12/22 09:55:25;;;;;;;12.60;12.00;;;10.30;99.90;;;;;;5115244;27;20232;-64
2023/12/22 09:57:53;;;;;;;13.80;13.00;;;10.30;99.90;;;;;;5119661;27;20198;-66
2023/12/22 10:00:21;;;;;;;12.57;12.00;;;10.30;99.90;;;;;;5115305;28;20225;-66
2023/12/22 10:02:48;;;;;;;12.33;11.67;;;10.40;99.90;;;;;;5111862;27;20235;-67
2023/12/22 10:05:17;;;;;;;12.57;12.07;;;10.40;99.90;;;;;;5116320;27;20209;-66
2023/12/22 10:07:46;;;;;;;12.30;11.80;;;10.40;99.90;;;;;;5123238;27;20293;-67
2023/12/22 10:10:13;;;;;;;12.15;11.55;;;10.40;99.90;;;;;;5113310;28;20222;-66
2023/12/22 10:12:42;;;;;;;13.57;12.97;;;10.40;99.90;;;;;;5110089;28;20218;-66
2023/12/22 10:15:12;;;;;;;12.43;11.83;;;10.40;99.90;;;;;;5120614;27;20229;-65
2023/12/22 10:17:39;;;;;;;12.43;11.83;;;10.40;99.90;;;;;;5119281;27;20217;-65
2023/12/22 10:20:07;;;;;;;12.23;11.73;;;10.40;99.90;;;;;;5118923;27;20225;-65
2023/12/22 10:22:35;;;;;;;12.10;11.50;;;10.40;99.90;;;;;;5115675;27;20209;-67
2023/12/22 10:25:02;;;;;;;12.50;12.00;;;10.30;99.90;;;;;;5117600;27;20205;-65
2023/12/22 10:27:31;;;;;;;12.07;11.57;;;10.30;99.90;;;;;;5112868;27;20213;-65
2023/12/22 10:29:58;;;;;;;12.50;11.90;;;10.30;99.90;;;;;;5118469;27;20314;-65
2023/12/22 10:32:25;;;;;;;13.13;12.60;;;10.30;99.90;;;;;;5113533;27;20210;-65
2023/12/22 10:34:52;;;;;;;12.83;12.30;;;10.30;99.90;;;;;;5116225;27;20679;-65
2023/12/22 10:37:21;;;;;;;13.70;13.10;;;10.20;99.90;;;;;;5113392;28;20238;-65
2023/12/22 10:39:53;;;;;;;13.13;12.63;;;10.20;99.90;;;;;;5110943;28;20312;-65
2023/12/22 10:42:20;;;;;;;13.20;12.60;;;10.20;99.90;;;;;;5116200;27;20569;-66
2023/12/22 10:44:47;;;;;;;12.57;12.07;;;10.20;99.90;;;;;;5109713;28;20187;-65
2023/12/22 10:47:14;;;;;;;12.37;11.87;;;10.10;99.90;;;;;;5112838;28;20550;-66
2023/12/22 10:49:42;;;;;;;13.43;12.83;;;10.10;99.90;;;;;;5117948;27;20238;-64
2023/12/22 10:52:15;;;;;;;15.57;14.87;;;10.20;99.90;;;;;;5112766;27;20201;-64
2023/12/22 10:54:42;;;;;;;14.40;13.80;;;10.10;99.90;;;;;;5111763;28;20206;-66
2023/12/22 10:57:11;;;;;;;14.47;13.87;;;10.10;99.90;;;;;;5111694;28;20202;-65
2023/12/22 10:59:45;;;;;;;15.37;14.77;;;10.10;99.90;;;;;;5111405;28;20233;-65
2023/12/22 11:02:17;;;;;;;13.60;13.10;;;10.00;99.90;;;;;;5109451;28;20290;-66
2023/12/22 11:04:51;;;;;;;14.47;13.87;;;10.00;99.90;;;;;;5115025;27;20253;-65
2023/12/22 11:07:24;;;;;;;13.97;13.37;;;10.00;99.90;;;;;;5115089;27;20212;-65
2023/12/22 11:09:52;;;;;;;13.43;12.93;;;10.00;99.90;;;;;;5105866;28;20230;-66
2023/12/22 11:12:21;;;;;;;13.60;13.10;;;10.00;99.90;;;;;;5115683;28;20217;-64
2023/12/22 11:14:50;;;;;;;13.10;12.60;;;10.00;99.90;;;;;;5115885;28;20732;-65
2023/12/22 11:17:19;;;;;;;14.40;13.80;;;10.10;99.90;;;;;;5117610;28;20240;-65
2023/12/22 11:19:48;;;;;;;14.23;13.70;;;10.10;99.90;;;;;;5117205;27;20221;-65
2023/12/22 11:22:17;;;;;;;14.20;13.70;;;10.10;99.90;;;;;;5117690;27;20221;-65
2023/12/22 11:24:44;;;;;;;14.53;13.93;;;10.10;99.90;;;;;;5110368;28;20579;-65
2023/12/22 11:27:13;;;;;;;13.90;13.33;;;10.10;99.90;;;;;;5114248;27;20687;-65
2023/12/22 11:29:42;;;;;;;13.30;12.70;;;10.20;99.90;;;;;;5110804;28;20892;-64
2023/12/22 11:32:11;;;;;;;15.97;15.37;;;10.10;99.90;;;;;;5122702;27;20665;-64
2023/12/22 11:34:40;;;;;;;14.97;14.30;;;10.10;99.90;;;;;;5123607;27;20218;-65
2023/12/22 11:37:09;;;;;;;14.90;14.30;;;10.10;99.90;;;;;;5129180;27;20194;-63
2023/12/22 11:39:35;;;;;;;14.03;13.43;;;10.00;99.90;;;;;;5124523;27;20222;-64
2023/12/22 11:42:04;;;;;;;14.80;14.20;;;10.00;99.90;;;;;;5128608;27;20667;-64
2023/12/22 11:44:31;;;;;;;14.60;14.10;;;10.00;99.90;;;;;;5111679;28;20205;-65
2023/12/22 11:47:06;;;;;;;14.57;14.07;;;10.00;99.90;;;;;;5112110;28;20228;-65
2023/12/22 11:49:34;;;;;;;16.30;15.70;;;10.00;99.90;;;;;;5110197;28;20225;-63
2023/12/22 11:52:10;;;;;;;15.60;15.00;;;9.90;99.90;;;;;;5117541;27;21156;-64
2023/12/22 11:54:48;;;;;;;16.50;15.90;;;9.90;99.90;;;;;;5113153;27;20213;-64
2023/12/22 11:57:34;;;;;;;16.33;15.73;;;9.90;99.90;;;;;;5114939;27;20197;-65
2023/12/22 12:00:06;;;;;;;16.27;15.67;;;9.80;99.90;;;;;;5112355;27;20224;-66
2023/12/22 12:02:36;;;;;;;15.97;15.37;;;9.90;99.90;;;;;;5114876;27;20285;-65
2023/12/22 12:05:03;;;;;;;16.73;16.13;;;9.80;99.90;;;;;;5112637;28;20297;-66
2023/12/22 12:07:45;;;;;;;16.27;15.67;;;9.80;99.90;;;;;;5114776;27;20212;-66
2023/12/22 12:10:14;;;;;;;16.37;15.77;;;9.90;99.90;;;;;;5111698;28;20229;-64
2023/12/22 12:12:41;;;;;;;16.30;15.70;;;9.80;99.90;;;;;;5111319;28;20647;-65
2023/12/22 12:15:10;;;;;;;17.77;17.17;;;9.80;99.90;;;;;;5121657;28;20189;-64
2023/12/22 12:17:42;;;;;;;15.95;15.45;;;9.80;99.90;;;;;;5116718;28;20213;-66
2023/12/22 12:20:11;;;;;;;15.47;14.97;;;9.80;99.90;;;;;;5110665;28;20706;-64
2023/12/22 12:22:40;;;;;;;16.53;15.93;;;9.90;99.90;;;;;;5110365;28;20220;-64
2023/12/22 12:25:11;;;;;;;16.70;16.10;;;9.90;99.90;;;;;;5113022;28;20214;-63
2023/12/22 12:27:38;;;;;;;16.53;15.93;;;9.90;99.90;;;;;;5118225;28;20202;-63
2023/12/22 12:30:13;;;;;;;16.67;16.07;;;9.90;99.90;;;;;;5112075;28;20618;-64
2023/12/22 12:32:43;;;;;;;16.43;15.83;;;9.90;99.90;;;;;;5116145;28;20692;-64